MSC Krittika — H3RV — position and weather

sailwx.info

Track history (hours):
 
Tides and Currents Weather Stations Pressure Air Temp Water Temp Dewpoint Dewpoint Depression Visibility Wind Speed Wind Dir Waves Ship Positions

MSC Krittika

Last reported at 2014-Oct-01 15:31 UTC. Time now 2014-Oct-01 16:14 UTC.
Position N 24°27' E 118°49'.

Length 202 m; draft 8.2 m.

Type: Ship (hazmat cat A). MMSI: 354725000.

Date/timePositionNaut miles runAvg speedWind from/ knotsBaromVisibWave heightAir tempDewpointWater temp
2014-Oct-01 15:31N 24°27' E 118°49'1615.9
2014-Oct-01 14:32N 24°17' E 118°35'1515.1
2014-Oct-01 13:32N 24°13' E 118°19'1212.6
2014-Oct-01 12:33N 24°21' E 118°09'8 8.4
2014-Oct-01 11:33N 24°26' E 118°02'0 0.0
2014-Oct-01 10:32N 24°26' E 118°02'0 0.0
2014-Oct-01 09:26N 24°26' E 118°02'0 0.0
2014-Oct-01 08:32N 24°26' E 118°02'0 0.0
2014-Oct-01 07:26N 24°26' E 118°02'0 0.0
2014-Oct-01 06:20N 24°26' E 118°02'0 0.0
2014-Oct-01 05:20N 24°26' E 118°02'0 0.4
2014-Oct-01 04:33N 24°26' E 118°02'8 7.8
2014-Oct-01 03:33N 24°22' E 118°09'2 1.2
2014-Oct-01 01:32N 24°21' E 118°11'0 0.0
2014-Oct-01 00:14N 24°21' E 118°11'0 0.0
2014-Sep-30 23:32N 24°21' E 118°11'0 0.0
2014-Sep-30 22:20N 24°21' E 118°11'0 0.0
2014-Sep-30 21:32N 24°21' E 118°11'0 0.0
2014-Sep-30 20:08N 24°21' E 118°11'0 0.0
2014-Sep-30 19:09N 24°21' E 118°11'0 0.0
2014-Sep-30 18:26N 24°21' E 118°11'0 0.1
2014-Sep-30 17:26N 24°21' E 118°11'0 0.0
2014-Sep-30 16:26N 24°21' E 118°11'0 0.1
2014-Sep-30 15:26N 24°21' E 118°11'0 0.0
2014-Sep-30 13:32N 24°21' E 118°11'0 0.0
2014-Sep-30 12:26N 24°21' E 118°11'0 0.0
2014-Sep-30 10:20N 24°21' E 118°11'0 0.0
2014-Sep-30 09:08N 24°21' E 118°11'0 0.1
2014-Sep-30 08:32N 24°21' E 118°11'0 0.0
2014-Sep-30 07:20N 24°21' E 118°11'0 0.1
2014-Sep-30 06:32N 24°21' E 118°11'0 0.0
2014-Sep-30 05:08N 24°21' E 118°11'0 0.0
2014-Sep-30 04:08N 24°21' E 118°11'0 0.1
2014-Sep-30 03:32N 24°21' E 118°11'0 0.1
2014-Sep-30 02:32N 24°21' E 118°11'0 0.1
2014-Sep-30 01:26N 24°21' E 118°11'0 0.0
2014-Sep-30 00:26N 24°21' E 118°11'0 0.1
2014-Sep-29 23:32N 24°21' E 118°11'0 0.0
2014-Sep-29 22:32N 24°21' E 118°11'0 0.0
2014-Sep-29 20:32N 24°21' E 118°11'0 0.4
2014-Sep-29 19:33N 24°20' E 118°11'7 7.1
2014-Sep-29 18:33N 24°14' E 118°14'9 9.2
2014-Sep-29 17:33N 24°09' E 118°22'1313.0
2014-Sep-29 16:33N 23°57' E 118°18'1918.2
2014-Sep-29 15:31N 23°40' E 118°07'2218.0
2014-Sep-29 14:17N 23°24' E 117°50'1417.8
2014-Sep-29 13:29N 23°16' E 117°38'20414.7
2014-Sep-28 23:33N 22°20' E 114°05'1111.4
2014-Sep-28 22:33N 22°24' E 113°53'4 3.6
2014-Sep-28 21:25N 22°28' E 113°53'0 0.0
2014-Sep-28 20:19N 22°28' E 113°53'0 0.0
2014-Sep-28 19:31N 22°28' E 113°53'0 0.0
2014-Sep-28 18:31N 22°28' E 113°53'0 0.0
2014-Sep-28 17:31N 22°28' E 113°53'0 0.0
2014-Sep-28 16:24N 22°28' E 113°53'0 0.0
2014-Sep-28 15:24N 22°28' E 113°53'0 0.0
2014-Sep-28 14:30N 22°28' E 113°53'0 0.0
2014-Sep-28 13:30N 22°28' E 113°53'0 0.0
2014-Sep-28 12:18N 22°28' E 113°53'0 0.0
2014-Sep-28 11:33N 22°28' E 113°53'0 0.0
2014-Sep-28 10:24N 22°28' E 113°53'0 0.0
2014-Sep-28 09:24N 22°28' E 113°53'0 0.0
2014-Sep-28 08:30N 22°28' E 113°53'0 0.0
2014-Sep-28 07:30N 22°28' E 113°53'0 0.0
2014-Sep-28 06:30N 22°28' E 113°53'0 0.2
2014-Sep-28 05:33N 22°28' E 113°53'21811.2
2014-Sep-27 10:10N 23°19' E 117°43'1117.8
2014-Sep-27 09:32N 23°25' E 117°53'1817.3
2014-Sep-27 08:31N 23°38' E 118°05'1717.9
2014-Sep-27 07:33N 23°50' E 118°19'5817.7
2014-Sep-27 04:15N 24°32' E 119°03'1216.6
2014-Sep-27 03:33N 24°42' E 119°10'1817.5
2014-Sep-27 02:33N 24°53' E 119°25'  
Track history (hours):
 
Tides and Currents Weather Stations Pressure Air Temp Water Temp Dewpoint Dewpoint Depression Visibility Wind Speed Wind Dir Waves Ship Positions

MSC Krittika

Last reported at 2014-Oct-01 15:31 UTC. Time now 2014-Oct-01 16:14 UTC.
Position N 24°27' E 118°49'.

Length 202 m; draft 8.2 m.

Type: Ship (hazmat cat A). MMSI: 354725000.

Date/timePositionNaut miles runAvg speedWind from/ knotsBaromVisibWave heightAir tempDewpointWater temp
2014-Oct-01 15:31N 24°27' E 118°49'1615.9
2014-Oct-01 14:32N 24°17' E 118°35'1515.1
2014-Oct-01 13:32N 24°13' E 118°19'1212.6
2014-Oct-01 12:33N 24°21' E 118°09'8 8.4
2014-Oct-01 11:33N 24°26' E 118°02'0 0.0
2014-Oct-01 10:32N 24°26' E 118°02'0 0.0
2014-Oct-01 09:26N 24°26' E 118°02'0 0.0
2014-Oct-01 08:32N 24°26' E 118°02'0 0.0
2014-Oct-01 07:26N 24°26' E 118°02'0 0.0
2014-Oct-01 06:20N 24°26' E 118°02'0 0.0
2014-Oct-01 05:20N 24°26' E 118°02'0 0.4
2014-Oct-01 04:33N 24°26' E 118°02'8 7.8
2014-Oct-01 03:33N 24°22' E 118°09'2 1.2
2014-Oct-01 01:32N 24°21' E 118°11'0 0.0
2014-Oct-01 00:14N 24°21' E 118°11'0 0.0
2014-Sep-30 23:32N 24°21' E 118°11'0 0.0
2014-Sep-30 22:20N 24°21' E 118°11'0 0.0
2014-Sep-30 21:32N 24°21' E 118°11'0 0.0
2014-Sep-30 20:08N 24°21' E 118°11'0 0.0
2014-Sep-30 19:09N 24°21' E 118°11'0 0.0
2014-Sep-30 18:26N 24°21' E 118°11'0 0.1
2014-Sep-30 17:26N 24°21' E 118°11'0 0.0
2014-Sep-30 16:26N 24°21' E 118°11'0 0.1
2014-Sep-30 15:26N 24°21' E 118°11'0 0.0
2014-Sep-30 13:32N 24°21' E 118°11'0 0.0
2014-Sep-30 12:26N 24°21' E 118°11'0 0.0
2014-Sep-30 10:20N 24°21' E 118°11'0 0.0
2014-Sep-30 09:08N 24°21' E 118°11'0 0.1
2014-Sep-30 08:32N 24°21' E 118°11'0 0.0
2014-Sep-30 07:20N 24°21' E 118°11'0 0.1
2014-Sep-30 06:32N 24°21' E 118°11'0 0.0
2014-Sep-30 05:08N 24°21' E 118°11'0 0.0
2014-Sep-30 04:08N 24°21' E 118°11'0 0.1
2014-Sep-30 03:32N 24°21' E 118°11'0 0.1
2014-Sep-30 02:32N 24°21' E 118°11'0 0.1
2014-Sep-30 01:26N 24°21' E 118°11'0 0.0
2014-Sep-30 00:26N 24°21' E 118°11'0 0.1
2014-Sep-29 23:32N 24°21' E 118°11'0 0.0
2014-Sep-29 22:32N 24°21' E 118°11'0 0.0
2014-Sep-29 20:32N 24°21' E 118°11'0 0.4
2014-Sep-29 19:33N 24°20' E 118°11'7 7.1
2014-Sep-29 18:33N 24°14' E 118°14'9 9.2
2014-Sep-29 17:33N 24°09' E 118°22'1313.0
2014-Sep-29 16:33N 23°57' E 118°18'1918.2
2014-Sep-29 15:31N 23°40' E 118°07'2218.0
2014-Sep-29 14:17N 23°24' E 117°50'1417.8
2014-Sep-29 13:29N 23°16' E 117°38'20414.7
2014-Sep-28 23:33N 22°20' E 114°05'1111.4
2014-Sep-28 22:33N 22°24' E 113°53'4 3.6
2014-Sep-28 21:25N 22°28' E 113°53'0 0.0
2014-Sep-28 20:19N 22°28' E 113°53'0 0.0
2014-Sep-28 19:31N 22°28' E 113°53'0 0.0
2014-Sep-28 18:31N 22°28' E 113°53'0 0.0
2014-Sep-28 17:31N 22°28' E 113°53'0 0.0
2014-Sep-28 16:24N 22°28' E 113°53'0 0.0
2014-Sep-28 15:24N 22°28' E 113°53'0 0.0
2014-Sep-28 14:30N 22°28' E 113°53'0 0.0
2014-Sep-28 13:30N 22°28' E 113°53'0 0.0
2014-Sep-28 12:18N 22°28' E 113°53'0 0.0
2014-Sep-28 11:33N 22°28' E 113°53'0 0.0
2014-Sep-28 10:24N 22°28' E 113°53'0 0.0
2014-Sep-28 09:24N 22°28' E 113°53'0 0.0
2014-Sep-28 08:30N 22°28' E 113°53'0 0.0
2014-Sep-28 07:30N 22°28' E 113°53'0 0.0
2014-Sep-28 06:30N 22°28' E 113°53'0 0.2
2014-Sep-28 05:33N 22°28' E 113°53'21811.2
2014-Sep-27 10:10N 23°19' E 117°43'1117.8
2014-Sep-27 09:32N 23°25' E 117°53'1817.3
2014-Sep-27 08:31N 23°38' E 118°05'1717.9
2014-Sep-27 07:33N 23°50' E 118°19'5817.7
2014-Sep-27 04:15N 24°32' E 119°03'1216.6
2014-Sep-27 03:33N 24°42' E 119°10'1817.5
2014-Sep-27 02:33N 24°53' E 119°25'  

Dump ship's entire track history